sensor_id;sensor_type;location;lat;lon;timestamp;pressure;altitude;pressure_sealevel;temperature
4421;BMP180;11824;51.178;13.546;2023-07-30T00:00:00;99638.00;;;16.70
4421;BMP180;11824;51.178;13.546;2023-07-30T00:02:28;99642.00;;;16.70
4421;BMP180;11824;51.178;13.546;2023-07-30T00:04:55;99644.00;;;16.70
4421;BMP180;11824;51.178;13.546;2023-07-30T00:07:23;99638.00;;;16.70
4421;BMP180;11824;51.178;13.546;2023-07-30T00:09:51;99646.00;;;16.70
4421;BMP180;11824;51.178;13.546;2023-07-30T00:12:18;99645.00;;;16.70
4421;BMP180;11824;51.178;13.546;2023-07-30T00:14:45;99642.00;;;16.70
4421;BMP180;11824;51.178;13.546;2023-07-30T00:17:13;99627.00;;;16.70
4421;BMP180;11824;51.178;13.546;2023-07-30T00:19:40;99637.00;;;16.70
4421;BMP180;11824;51.178;13.546;2023-07-30T00:22:07;99629.00;;;16.60
4421;BMP180;11824;51.178;13.546;2023-07-30T00:24:36;99626.00;;;16.60
4421;BMP180;11824;51.178;13.546;2023-07-30T00:27:03;99633.00;;;16.60
4421;BMP180;11824;51.178;13.546;2023-07-30T00:29:31;99626.00;;;16.60
4421;BMP180;11824;51.178;13.546;2023-07-30T00:31:58;99621.00;;;16.60
4421;BMP180;11824;51.178;13.546;2023-07-30T00:34:25;99621.00;;;16.50
4421;BMP180;11824;51.178;13.546;2023-07-30T00:36:53;99622.00;;;16.50
4421;BMP180;11824;51.178;13.546;2023-07-30T00:39:20;99628.00;;;16.50
4421;BMP180;11824;51.178;13.546;2023-07-30T00:41:48;99625.00;;;16.50
4421;BMP180;11824;51.178;13.546;2023-07-30T00:44:17;99625.00;;;16.50
4421;BMP180;11824;51.178;13.546;2023-07-30T00:46:44;99626.00;;;16.50
4421;BMP180;11824;51.178;13.546;2023-07-30T00:49:12;99622.00;;;16.40
4421;BMP180;11824;51.178;13.546;2023-07-30T00:51:39;99620.00;;;16.40
4421;BMP180;11824;51.178;13.546;2023-07-30T00:54:07;99615.00;;;16.40
4421;BMP180;11824;51.178;13.546;2023-07-30T00:56:35;99607.00;;;16.40
4421;BMP180;11824;51.178;13.546;2023-07-30T00:59:04;99605.00;;;16.40
4421;BMP180;11824;51.178;13.546;2023-07-30T01:01:34;99599.00;;;16.40
4421;BMP180;11824;51.178;13.546;2023-07-30T01:04:03;99607.00;;;16.40
4421;BMP180;11824;51.178;13.546;2023-07-30T01:06:31;99603.00;;;16.40
4421;BMP180;11824;51.178;13.546;2023-07-30T01:08:59;99610.00;;;16.40
4421;BMP180;11824;51.178;13.546;2023-07-30T01:11:26;99614.00;;;16.30
4421;BMP180;11824;51.178;13.546;2023-07-30T01:13:55;99615.00;;;16.30
4421;BMP180;11824;51.178;13.546;2023-07-30T01:16:23;99613.00;;;16.30
4421;BMP180;11824;51.178;13.546;2023-07-30T01:18:51;99611.00;;;16.30
4421;BMP180;11824;51.178;13.546;2023-07-30T01:21:19;99615.00;;;16.30
4421;BMP180;11824;51.178;13.546;2023-07-30T01:23:46;99617.00;;;16.30
4421;BMP180;11824;51.178;13.546;2023-07-30T01:26:19;99621.00;;;16.20
4421;BMP180;11824;51.178;13.546;2023-07-30T01:28:53;99629.00;;;16.20
4421;BMP180;11824;51.178;13.546;2023-07-30T01:31:24;99627.00;;;16.20
4421;BMP180;11824;51.178;13.546;2023-07-30T01:33:54;99629.00;;;16.20
4421;BMP180;11824;51.178;13.546;2023-07-30T01:36:23;99629.00;;;16.20
4421;BMP180;11824;51.178;13.546;2023-07-30T01:38:51;99639.00;;;16.20
4421;BMP180;11824;51.178;13.546;2023-07-30T01:41:19;99636.00;;;16.20
4421;BMP180;11824;51.178;13.546;2023-07-30T01:43:47;99644.00;;;16.20
4421;BMP180;11824;51.178;13.546;2023-07-30T01:46:14;99647.00;;;16.10
4421;BMP180;11824;51.178;13.546;2023-07-30T01:48:41;99651.00;;;16.10
4421;BMP180;11824;51.178;13.546;2023-07-30T01:51:09;99653.00;;;16.10
4421;BMP180;11824;51.178;13.546;2023-07-30T01:53:37;99661.00;;;16.10
4421;BMP180;11824;51.178;13.546;2023-07-30T01:56:04;99661.00;;;16.10
4421;BMP180;11824;51.178;13.546;2023-07-30T01:58:32;99662.00;;;16.10
4421;BMP180;11824;51.178;13.546;2023-07-30T02:00:59;99651.00;;;16.10
4421;BMP180;11824;51.178;13.546;2023-07-30T02:03:26;99660.00;;;16.10
4421;BMP180;11824;51.178;13.546;2023-07-30T02:05:54;99669.00;;;16.10
4421;BMP180;11824;51.178;13.546;2023-07-30T02:08:21;99665.00;;;16.00
4421;BMP180;11824;51.178;13.546;2023-07-30T02:10:56;99662.00;;;16.10
4421;BMP180;11824;51.178;13.546;2023-07-30T02:13:24;99656.00;;;16.10
4421;BMP180;11824;51.178;13.546;2023-07-30T02:15:51;99655.00;;;16.10
4421;BMP180;11824;51.178;13.546;2023-07-30T02:18:19;99657.00;;;16.10
4421;BMP180;11824;51.178;13.546;2023-07-30T02:20:46;99660.00;;;16.10
4421;BMP180;11824;51.178;13.546;2023-07-30T02:23:15;99666.00;;;16.20
4421;BMP180;11824;51.178;13.546;2023-07-30T02:25:43;99657.00;;;16.20
4421;BMP180;11824;51.178;13.546;2023-07-30T02:28:11;99656.00;;;16.30
4421;BMP180;11824;51.178;13.546;2023-07-30T02:30:41;99647.00;;;16.30
4421;BMP180;11824;51.178;13.546;2023-07-30T02:33:09;99641.00;;;16.40
4421;BMP180;11824;51.178;13.546;2023-07-30T02:35:36;99648.00;;;16.50
4421;BMP180;11824;51.178;13.546;2023-07-30T02:38:03;99656.00;;;16.50
4421;BMP180;11824;51.178;13.546;2023-07-30T02:40:31;99645.00;;;16.60
4421;BMP180;11824;51.178;13.546;2023-07-30T02:42:59;99637.00;;;16.70
4421;BMP180;11824;51.178;13.546;2023-07-30T02:45:27;99648.00;;;16.70
4421;BMP180;11824;51.178;13.546;2023-07-30T02:47:54;99649.00;;;16.80
4421;BMP180;11824;51.178;13.546;2023-07-30T02:50:22;99652.00;;;16.80
4421;BMP180;11824;51.178;13.546;2023-07-30T02:52:49;99656.00;;;16.90
4421;BMP180;11824;51.178;13.546;2023-07-30T02:55:16;99655.00;;;16.90
4421;BMP180;11824;51.178;13.546;2023-07-30T02:57:44;99657.00;;;17.00
4421;BMP180;11824;51.178;13.546;2023-07-30T03:00:12;99667.00;;;17.10
4421;BMP180;11824;51.178;13.546;2023-07-30T03:02:41;99657.00;;;17.10
4421;BMP180;11824;51.178;13.546;2023-07-30T03:05:09;99655.00;;;17.10
4421;BMP180;11824;51.178;13.546;2023-07-30T03:07:36;99664.00;;;17.20
4421;BMP180;11824;51.178;13.546;2023-07-30T03:10:04;99660.00;;;17.20
4421;BMP180;11824;51.178;13.546;2023-07-30T03:12:31;99662.00;;;17.30
4421;BMP180;11824;51.178;13.546;2023-07-30T03:14:59;99655.00;;;17.30
4421;BMP180;11824;51.178;13.546;2023-07-30T03:17:26;99655.00;;;17.40
4421;BMP180;11824;51.178;13.546;2023-07-30T03:19:54;99656.00;;;17.40
4421;BMP180;11824;51.178;13.546;2023-07-30T03:22:22;99661.00;;;17.50
4421;BMP180;11824;51.178;13.546;2023-07-30T03:24:49;99658.00;;;17.50
4421;BMP180;11824;51.178;13.546;2023-07-30T03:27:17;99665.00;;;17.50
4421;BMP180;11824;51.178;13.546;2023-07-30T03:29:44;99655.00;;;17.60
4421;BMP180;11824;51.178;13.546;2023-07-30T03:32:11;99654.00;;;17.60
4421;BMP180;11824;51.178;13.546;2023-07-30T03:34:39;99656.00;;;17.70
4421;BMP180;11824;51.178;13.546;2023-07-30T03:37:07;99662.00;;;17.70
4421;BMP180;11824;51.178;13.546;2023-07-30T03:39:34;99666.00;;;17.70
4421;BMP180;11824;51.178;13.546;2023-07-30T03:42:02;99666.00;;;17.80
4421;BMP180;11824;51.178;13.546;2023-07-30T03:44:30;99668.00;;;17.80
4421;BMP180;11824;51.178;13.546;2023-07-30T03:46:57;99674.00;;;17.90
4421;BMP180;11824;51.178;13.546;2023-07-30T03:49:24;99675.00;;;17.90
4421;BMP180;11824;51.178;13.546;2023-07-30T03:51:52;99673.00;;;18.00
4421;BMP180;11824;51.178;13.546;2023-07-30T03:54:20;99662.00;;;18.00
4421;BMP180;11824;51.178;13.546;2023-07-30T03:56:48;99665.00;;;18.10
4421;BMP180;11824;51.178;13.546;2023-07-30T03:59:15;99659.00;;;18.10
4421;BMP180;11824;51.178;13.546;2023-07-30T04:01:42;99665.00;;;18.20
4421;BMP180;11824;51.178;13.546;2023-07-30T04:04:10;99659.00;;;18.20
4421;BMP180;11824;51.178;13.546;2023-07-30T04:06:37;99671.00;;;18.20
4421;BMP180;11824;51.178;13.546;2023-07-30T04:09:05;99672.00;;;18.30
4421;BMP180;11824;51.178;13.546;2023-07-30T04:11:33;99663.00;;;18.30
4421;BMP180;11824;51.178;13.546;2023-07-30T04:14:00;99660.00;;;18.40
4421;BMP180;11824;51.178;13.546;2023-07-30T04:16:27;99665.00;;;18.40
4421;BMP180;11824;51.178;13.546;2023-07-30T04:18:55;99661.00;;;18.50
4421;BMP180;11824;51.178;13.546;2023-07-30T04:21:22;99676.00;;;18.50
4421;BMP180;11824;51.178;13.546;2023-07-30T04:23:50;99667.00;;;18.50
4421;BMP180;11824;51.178;13.546;2023-07-30T04:26:18;99664.00;;;18.60
4421;BMP180;11824;51.178;13.546;2023-07-30T04:28:46;99660.00;;;18.70
4421;BMP180;11824;51.178;13.546;2023-07-30T04:31:13;99661.00;;;18.70
4421;BMP180;11824;51.178;13.546;2023-07-30T04:33:40;99653.00;;;18.80
4421;BMP180;11824;51.178;13.546;2023-07-30T04:36:08;99664.00;;;18.90
4421;BMP180;11824;51.178;13.546;2023-07-30T04:38:35;99659.00;;;19.00
4421;BMP180;11824;51.178;13.546;2023-07-30T04:41:03;99671.00;;;19.10
4421;BMP180;11824;51.178;13.546;2023-07-30T04:43:30;99665.00;;;19.30
4421;BMP180;11824;51.178;13.546;2023-07-30T04:45:58;99666.00;;;19.40
4421;BMP180;11824;51.178;13.546;2023-07-30T04:48:26;99664.00;;;19.60
4421;BMP180;11824;51.178;13.546;2023-07-30T04:50:53;99674.00;;;19.80
4421;BMP180;11824;51.178;13.546;2023-07-30T04:53:20;99675.00;;;20.10
4421;BMP180;11824;51.178;13.546;2023-07-30T04:55:48;99688.00;;;20.40
4421;BMP180;11824;51.178;13.546;2023-07-30T04:58:15;99679.00;;;20.60
4421;BMP180;11824;51.178;13.546;2023-07-30T05:00:44;99672.00;;;20.70
4421;BMP180;11824;51.178;13.546;2023-07-30T05:03:12;99663.00;;;20.70
4421;BMP180;11824;51.178;13.546;2023-07-30T05:05:40;99672.00;;;20.70
4421;BMP180;11824;51.178;13.546;2023-07-30T05:08:07;99657.00;;;20.70
4421;BMP180;11824;51.178;13.546;2023-07-30T05:10:35;99671.00;;;20.70
4421;BMP180;11824;51.178;13.546;2023-07-30T05:13:03;99671.00;;;20.80
4421;BMP180;11824;51.178;13.546;2023-07-30T05:15:30;99683.00;;;20.70
4421;BMP180;11824;51.178;13.546;2023-07-30T05:17:57;99684.00;;;20.80
4421;BMP180;11824;51.178;13.546;2023-07-30T05:20:26;99684.00;;;20.80
4421;BMP180;11824;51.178;13.546;2023-07-30T05:22:53;99695.00;;;20.80
4421;BMP180;11824;51.178;13.546;2023-07-30T05:25:20;99698.00;;;20.80
4421;BMP180;11824;51.178;13.546;2023-07-30T05:27:48;99704.00;;;20.80
4421;BMP180;11824;51.178;13.546;2023-07-30T05:30:15;99699.00;;;20.90
4421;BMP180;11824;51.178;13.546;2023-07-30T05:32:42;99710.00;;;20.90
4421;BMP180;11824;51.178;13.546;2023-07-30T05:35:10;99709.00;;;21.00
4421;BMP180;11824;51.178;13.546;2023-07-30T05:37:38;99710.00;;;21.00
4421;BMP180;11824;51.178;13.546;2023-07-30T05:40:06;99713.00;;;21.10
4421;BMP180;11824;51.178;13.546;2023-07-30T05:42:34;99711.00;;;21.20
4421;BMP180;11824;51.178;13.546;2023-07-30T05:45:01;99724.00;;;21.20
4421;BMP180;11824;51.178;13.546;2023-07-30T05:47:29;99719.00;;;21.20
4421;BMP180;11824;51.178;13.546;2023-07-30T05:49:56;99709.00;;;21.20
4421;BMP180;11824;51.178;13.546;2023-07-30T05:52:24;99707.00;;;21.20
4421;BMP180;11824;51.178;13.546;2023-07-30T05:54:52;99721.00;;;21.20
4421;BMP180;11824;51.178;13.546;2023-07-30T05:57:19;99725.00;;;21.30
4421;BMP180;11824;51.178;13.546;2023-07-30T05:59:47;99721.00;;;21.40
4421;BMP180;11824;51.178;13.546;2023-07-30T06:02:14;99726.00;;;21.50
4421;BMP180;11824;51.178;13.546;2023-07-30T06:04:42;99716.00;;;21.60
4421;BMP180;11824;51.178;13.546;2023-07-30T06:07:09;99719.00;;;21.70
4421;BMP180;11824;51.178;13.546;2023-07-30T06:09:37;99719.00;;;21.80
4421;BMP180;11824;51.178;13.546;2023-07-30T06:12:06;99722.00;;;21.90
4421;BMP180;11824;51.178;13.546;2023-07-30T06:14:33;99718.00;;;22.00
4421;BMP180;11824;51.178;13.546;2023-07-30T06:17:01;99727.00;;;22.00
4421;BMP180;11824;51.178;13.546;2023-07-30T06:19:28;99723.00;;;22.10
4421;BMP180;11824;51.178;13.546;2023-07-30T06:21:56;99732.00;;;22.20
4421;BMP180;11824;51.178;13.546;2023-07-30T06:24:23;99727.00;;;22.30
4421;BMP180;11824;51.178;13.546;2023-07-30T06:26:51;99728.00;;;22.40
4421;BMP180;11824;51.178;13.546;2023-07-30T06:29:19;99730.00;;;22.50
4421;BMP180;11824;51.178;13.546;2023-07-30T06:31:46;99733.00;;;22.60
4421;BMP180;11824;51.178;13.546;2023-07-30T06:34:14;99731.00;;;22.70
4421;BMP180;11824;51.178;13.546;2023-07-30T06:36:41;99734.00;;;22.80
4421;BMP180;11824;51.178;13.546;2023-07-30T06:39:08;99740.00;;;23.00
4421;BMP180;11824;51.178;13.546;2023-07-30T06:41:36;99743.00;;;23.10
4421;BMP180;11824;51.178;13.546;2023-07-30T06:44:04;99735.00;;;23.40
4421;BMP180;11824;51.178;13.546;2023-07-30T06:46:32;99737.00;;;23.60
4421;BMP180;11824;51.178;13.546;2023-07-30T06:48:59;99747.00;;;23.80
4421;BMP180;11824;51.178;13.546;2023-07-30T06:51:27;99750.00;;;23.90
4421;BMP180;11824;51.178;13.546;2023-07-30T06:53:55;99750.00;;;24.00
4421;BMP180;11824;51.178;13.546;2023-07-30T06:56:22;99750.00;;;24.10
4421;BMP180;11824;51.178;13.546;2023-07-30T06:58:50;99741.00;;;24.10
4421;BMP180;11824;51.178;13.546;2023-07-30T07:01:17;99746.00;;;24.10
4421;BMP180;11824;51.178;13.546;2023-07-30T07:03:45;99740.00;;;24.10
4421;BMP180;11824;51.178;13.546;2023-07-30T07:06:12;99751.00;;;24.20
4421;BMP180;11824;51.178;13.546;2023-07-30T07:08:40;99754.00;;;24.20
4421;BMP180;11824;51.178;13.546;2023-07-30T07:11:07;99753.00;;;24.20
4421;BMP180;11824;51.178;13.546;2023-07-30T07:13:35;99750.00;;;24.20
4421;BMP180;11824;51.178;13.546;2023-07-30T07:16:02;99758.00;;;24.30
4421;BMP180;11824;51.178;13.546;2023-07-30T07:18:30;99765.00;;;24.30
4421;BMP180;11824;51.178;13.546;2023-07-30T07:20:58;99761.00;;;24.40
4421;BMP180;11824;51.178;13.546;2023-07-30T07:23:25;99764.00;;;24.50
4421;BMP180;11824;51.178;13.546;2023-07-30T07:25:53;99770.00;;;24.70
4421;BMP180;11824;51.178;13.546;2023-07-30T07:28:20;99770.00;;;24.70
4421;BMP180;11824;51.178;13.546;2023-07-30T07:30:48;99781.00;;;24.80
4421;BMP180;11824;51.178;13.546;2023-07-30T07:33:16;99778.00;;;24.80
4421;BMP180;11824;51.178;13.546;2023-07-30T07:35:43;99775.00;;;24.70
4421;BMP180;11824;51.178;13.546;2023-07-30T07:38:11;99777.00;;;24.70
4421;BMP180;11824;51.178;13.546;2023-07-30T07:40:39;99775.00;;;24.70
4421;BMP180;11824;51.178;13.546;2023-07-30T07:43:06;99778.00;;;24.70
4421;BMP180;11824;51.178;13.546;2023-07-30T07:45:34;99774.00;;;24.70
4421;BMP180;11824;51.178;13.546;2023-07-30T07:48:01;99785.00;;;24.70
4421;BMP180;11824;51.178;13.546;2023-07-30T07:50:29;99768.00;;;24.80
4421;BMP180;11824;51.178;13.546;2023-07-30T07:52:56;99766.00;;;24.80
4421;BMP180;11824;51.178;13.546;2023-07-30T07:55:24;99765.00;;;24.90
4421;BMP180;11824;51.178;13.546;2023-07-30T07:57:52;99773.00;;;25.00
4421;BMP180;11824;51.178;13.546;2023-07-30T08:00:19;99771.00;;;25.10
4421;BMP180;11824;51.178;13.546;2023-07-30T08:02:47;99765.00;;;25.20
4421;BMP180;11824;51.178;13.546;2023-07-30T08:05:18;99772.00;;;25.30
4421;BMP180;11824;51.178;13.546;2023-07-30T08:07:46;99773.00;;;25.50
4421;BMP180;11824;51.178;13.546;2023-07-30T08:10:14;99774.00;;;25.60
4421;BMP180;11824;51.178;13.546;2023-07-30T08:12:42;99770.00;;;25.80
4421;BMP180;11824;51.178;13.546;2023-07-30T08:15:10;99772.00;;;25.90
4421;BMP180;11824;51.178;13.546;2023-07-30T08:17:37;99763.00;;;26.00
4421;BMP180;11824;51.178;13.546;2023-07-30T08:20:06;99758.00;;;26.20
4421;BMP180;11824;51.178;13.546;2023-07-30T08:22:33;99768.00;;;26.30
4421;BMP180;11824;51.178;13.546;2023-07-30T08:25:01;99766.00;;;26.50
4421;BMP180;11824;51.178;13.546;2023-07-30T08:27:29;99765.00;;;26.60
4421;BMP180;11824;51.178;13.546;2023-07-30T08:29:57;99775.00;;;26.60
4421;BMP180;11824;51.178;13.546;2023-07-30T08:32:24;99767.00;;;26.60
4421;BMP180;11824;51.178;13.546;2023-07-30T08:34:52;99768.00;;;26.50
4421;BMP180;11824;51.178;13.546;2023-07-30T08:37:19;99764.00;;;26.50
4421;BMP180;11824;51.178;13.546;2023-07-30T08:39:46;99755.00;;;26.60
4421;BMP180;11824;51.178;13.546;2023-07-30T08:42:16;99753.00;;;26.70
4421;BMP180;11824;51.178;13.546;2023-07-30T08:44:44;99759.00;;;26.80
4421;BMP180;11824;51.178;13.546;2023-07-30T08:47:12;99757.00;;;26.90
4421;BMP180;11824;51.178;13.546;2023-07-30T08:49:39;99755.00;;;27.00
4421;BMP180;11824;51.178;13.546;2023-07-30T08:52:09;99749.00;;;27.00
4421;BMP180;11824;51.178;13.546;2023-07-30T08:54:38;99751.00;;;27.00
4421;BMP180;11824;51.178;13.546;2023-07-30T08:57:06;99747.00;;;27.10
4421;BMP180;11824;51.178;13.546;2023-07-30T08:59:39;99747.00;;;27.20
4421;BMP180;11824;51.178;13.546;2023-07-30T09:02:21;99743.00;;;27.30
4421;BMP180;11824;51.178;13.546;2023-07-30T09:04:53;99746.00;;;27.40
4421;BMP180;11824;51.178;13.546;2023-07-30T09:07:24;99746.00;;;27.40
4421;BMP180;11824;51.178;13.546;2023-07-30T09:09:52;99748.00;;;27.40
4421;BMP180;11824;51.178;13.546;2023-07-30T09:12:19;99753.00;;;27.20
4421;BMP180;11824;51.178;13.546;2023-07-30T09:14:51;99751.00;;;27.10
4421;BMP180;11824;51.178;13.546;2023-07-30T09:17:19;99757.00;;;27.00
4421;BMP180;11824;51.178;13.546;2023-07-30T09:19:47;99755.00;;;27.00
4421;BMP180;11824;51.178;13.546;2023-07-30T09:22:23;99747.00;;;27.10
4421;BMP180;11824;51.178;13.546;2023-07-30T09:24:51;99754.00;;;27.20
4421;BMP180;11824;51.178;13.546;2023-07-30T09:27:21;99756.00;;;27.30
4421;BMP180;11824;51.178;13.546;2023-07-30T09:29:51;99756.00;;;27.30
4421;BMP180;11824;51.178;13.546;2023-07-30T09:32:20;99750.00;;;27.40
4421;BMP180;11824;51.178;13.546;2023-07-30T09:34:48;99761.00;;;27.40
4421;BMP180;11824;51.178;13.546;2023-07-30T09:37:15;99764.00;;;27.50
4421;BMP180;11824;51.178;13.546;2023-07-30T09:39:43;99764.00;;;27.50
4421;BMP180;11824;51.178;13.546;2023-07-30T09:42:10;99761.00;;;27.50
4421;BMP180;11824;51.178;13.546;2023-07-30T09:44:38;99768.00;;;27.40
4421;BMP180;11824;51.178;13.546;2023-07-30T09:47:10;99773.00;;;27.40
4421;BMP180;11824;51.178;13.546;2023-07-30T09:49:38;99763.00;;;27.40
4421;BMP180;11824;51.178;13.546;2023-07-30T09:52:06;99765.00;;;27.40
4421;BMP180;11824;51.178;13.546;2023-07-30T09:54:33;99765.00;;;27.40
4421;BMP180;11824;51.178;13.546;2023-07-30T09:57:01;99769.00;;;27.50
4421;BMP180;11824;51.178;13.546;2023-07-30T09:59:29;99775.00;;;27.50
4421;BMP180;11824;51.178;13.546;2023-07-30T10:01:58;99764.00;;;27.60
4421;BMP180;11824;51.178;13.546;2023-07-30T10:04:25;99757.00;;;27.60
4421;BMP180;11824;51.178;13.546;2023-07-30T10:06:56;99769.00;;;27.70
4421;BMP180;11824;51.178;13.546;2023-07-30T10:09:28;99766.00;;;27.80
4421;BMP180;11824;51.178;13.546;2023-07-30T10:11:57;99760.00;;;27.90
4421;BMP180;11824;51.178;13.546;2023-07-30T10:14:26;99760.00;;;27.90
4421;BMP180;11824;51.178;13.546;2023-07-30T10:16:56;99760.00;;;28.00
4421;BMP180;11824;51.178;13.546;2023-07-30T10:19:26;99760.00;;;28.00
4421;BMP180;11824;51.178;13.546;2023-07-30T10:22:19;99759.00;;;28.10
4421;BMP180;11824;51.178;13.546;2023-07-30T10:24:56;99760.00;;;28.20
4421;BMP180;11824;51.178;13.546;2023-07-30T10:27:41;99759.00;;;28.30
4421;BMP180;11824;51.178;13.546;2023-07-30T10:30:11;99761.00;;;28.40
4421;BMP180;11824;51.178;13.546;2023-07-30T10:32:40;99752.00;;;28.40
4421;BMP180;11824;51.178;13.546;2023-07-30T10:35:07;99759.00;;;28.30
4421;BMP180;11824;51.178;13.546;2023-07-30T10:37:36;99766.00;;;28.30
4421;BMP180;11824;51.178;13.546;2023-07-30T10:40:16;99748.00;;;28.20
4421;BMP180;11824;51.178;13.546;2023-07-30T10:42:45;99755.00;;;28.10
4421;BMP180;11824;51.178;13.546;2023-07-30T10:45:12;99755.00;;;28.10
4421;BMP180;11824;51.178;13.546;2023-07-30T10:47:41;99756.00;;;28.00
4421;BMP180;11824;51.178;13.546;2023-07-30T10:50:10;99758.00;;;27.90
4421;BMP180;11824;51.178;13.546;2023-07-30T10:52:40;99749.00;;;27.80
4421;BMP180;11824;51.178;13.546;2023-07-30T10:55:08;99759.00;;;27.60
4421;BMP180;11824;51.178;13.546;2023-07-30T10:57:35;99759.00;;;27.40
4421;BMP180;11824;51.178;13.546;2023-07-30T11:00:03;99765.00;;;27.20
4421;BMP180;11824;51.178;13.546;2023-07-30T11:02:32;99757.00;;;27.10
4421;BMP180;11824;51.178;13.546;2023-07-30T11:05:12;99755.00;;;27.00
4421;BMP180;11824;51.178;13.546;2023-07-30T11:07:48;99753.00;;;27.00
4421;BMP180;11824;51.178;13.546;2023-07-30T11:10:16;99752.00;;;27.00
4421;BMP180;11824;51.178;13.546;2023-07-30T11:12:43;99750.00;;;27.10
4421;BMP180;11824;51.178;13.546;2023-07-30T11:15:11;99758.00;;;27.20
4421;BMP180;11824;51.178;13.546;2023-07-30T11:17:38;99745.00;;;27.30
4421;BMP180;11824;51.178;13.546;2023-07-30T11:20:07;99746.00;;;27.50
4421;BMP180;11824;51.178;13.546;2023-07-30T11:22:36;99753.00;;;27.60
4421;BMP180;11824;51.178;13.546;2023-07-30T11:25:16;99747.00;;;27.60
4421;BMP180;11824;51.178;13.546;2023-07-30T11:27:47;99742.00;;;27.70
4421;BMP180;11824;51.178;13.546;2023-07-30T11:30:14;99737.00;;;27.70
4421;BMP180;11824;51.178;13.546;2023-07-30T11:32:42;99731.00;;;27.70
4421;BMP180;11824;51.178;13.546;2023-07-30T11:35:11;99734.00;;;27.70
4421;BMP180;11824;51.178;13.546;2023-07-30T11:37:40;99729.00;;;27.70
4421;BMP180;11824;51.178;13.546;2023-07-30T11:40:10;99725.00;;;27.60
4421;BMP180;11824;51.178;13.546;2023-07-30T11:42:39;99723.00;;;27.60
4421;BMP180;11824;51.178;13.546;2023-07-30T11:45:19;99719.00;;;27.60
4421;BMP180;11824;51.178;13.546;2023-07-30T11:47:46;99716.00;;;27.60
4421;BMP180;11824;51.178;13.546;2023-07-30T11:50:14;99713.00;;;27.70
4421;BMP180;11824;51.178;13.546;2023-07-30T11:52:54;99711.00;;;27.70
4421;BMP180;11824;51.178;13.546;2023-07-30T11:55:23;99712.00;;;27.80
4421;BMP180;11824;51.178;13.546;2023-07-30T11:57:51;99709.00;;;27.90
4421;BMP180;11824;51.178;13.546;2023-07-30T12:00:21;99711.00;;;27.90
4421;BMP180;11824;51.178;13.546;2023-07-30T12:02:48;99709.00;;;28.00
4421;BMP180;11824;51.178;13.546;2023-07-30T12:05:17;99714.00;;;28.10
4421;BMP180;11824;51.178;13.546;2023-07-30T12:07:48;99711.00;;;28.10
4421;BMP180;11824;51.178;13.546;2023-07-30T12:10:15;99705.00;;;28.20
4421;BMP180;11824;51.178;13.546;2023-07-30T12:12:50;99706.00;;;28.30
4421;BMP180;11824;51.178;13.546;2023-07-30T12:15:19;99701.00;;;28.30
4421;BMP180;11824;51.178;13.546;2023-07-30T12:17:46;99700.00;;;28.30
4421;BMP180;11824;51.178;13.546;2023-07-30T12:20:14;99697.00;;;28.30
4421;BMP180;11824;51.178;13.546;2023-07-30T12:22:42;99694.00;;;28.30
4421;BMP180;11824;51.178;13.546;2023-07-30T12:25:11;99678.00;;;28.40
4421;BMP180;11824;51.178;13.546;2023-07-30T12:27:38;99684.00;;;28.40
4421;BMP180;11824;51.178;13.546;2023-07-30T12:30:08;99689.00;;;28.50
4421;BMP180;11824;51.178;13.546;2023-07-30T12:32:35;99680.00;;;28.50
4421;BMP180;11824;51.178;13.546;2023-07-30T12:35:03;99685.00;;;28.50
4421;BMP180;11824;51.178;13.546;2023-07-30T12:37:31;99677.00;;;28.50
4421;BMP180;11824;51.178;13.546;2023-07-30T12:39:59;99685.00;;;28.50
4421;BMP180;11824;51.178;13.546;2023-07-30T12:42:27;99677.00;;;28.50
4421;BMP180;11824;51.178;13.546;2023-07-30T12:44:54;99681.00;;;28.50
4421;BMP180;11824;51.178;13.546;2023-07-30T12:47:25;99682.00;;;28.60
4421;BMP180;11824;51.178;13.546;2023-07-30T12:49:52;99685.00;;;28.60
4421;BMP180;11824;51.178;13.546;2023-07-30T12:52:20;99679.00;;;28.50
4421;BMP180;11824;51.178;13.546;2023-07-30T12:54:47;99681.00;;;28.50
4421;BMP180;11824;51.178;13.546;2023-07-30T12:57:16;99682.00;;;28.50
4421;BMP180;11824;51.178;13.546;2023-07-30T12:59:43;99680.00;;;28.50
4421;BMP180;11824;51.178;13.546;2023-07-30T13:02:11;99683.00;;;28.50
4421;BMP180;11824;51.178;13.546;2023-07-30T13:04:39;99684.00;;;28.40
4421;BMP180;11824;51.178;13.546;2023-07-30T13:07:07;99681.00;;;28.40
4421;BMP180;11824;51.178;13.546;2023-07-30T13:09:34;99682.00;;;28.40
4421;BMP180;11824;51.178;13.546;2023-07-30T13:12:01;99682.00;;;28.40
4421;BMP180;11824;51.178;13.546;2023-07-30T13:14:29;99675.00;;;28.40
4421;BMP180;11824;51.178;13.546;2023-07-30T13:16:57;99673.00;;;28.50
4421;BMP180;11824;51.178;13.546;2023-07-30T13:19:25;99679.00;;;28.60
4421;BMP180;11824;51.178;13.546;2023-07-30T13:21:55;99677.00;;;28.70
4421;BMP180;11824;51.178;13.546;2023-07-30T13:24:23;99670.00;;;28.80
4421;BMP180;11824;51.178;13.546;2023-07-30T13:26:50;99660.00;;;28.90
4421;BMP180;11824;51.178;13.546;2023-07-30T13:29:18;99672.00;;;29.00
4421;BMP180;11824;51.178;13.546;2023-07-30T13:31:45;99668.00;;;29.00
4421;BMP180;11824;51.178;13.546;2023-07-30T13:34:12;99665.00;;;29.00
4421;BMP180;11824;51.178;13.546;2023-07-30T13:36:40;99665.00;;;29.00
4421;BMP180;11824;51.178;13.546;2023-07-30T13:39:08;99662.00;;;28.90
4421;BMP180;11824;51.178;13.546;2023-07-30T13:41:36;99657.00;;;28.80
4421;BMP180;11824;51.178;13.546;2023-07-30T13:44:08;99662.00;;;28.70
4421;BMP180;11824;51.178;13.546;2023-07-30T13:46:37;99670.00;;;28.70
4421;BMP180;11824;51.178;13.546;2023-07-30T13:49:05;99665.00;;;28.70
4421;BMP180;11824;51.178;13.546;2023-07-30T13:51:32;99656.00;;;28.70
4421;BMP180;11824;51.178;13.546;2023-07-30T13:54:00;99650.00;;;28.80
4421;BMP180;11824;51.178;13.546;2023-07-30T13:56:28;99651.00;;;28.90
4421;BMP180;11824;51.178;13.546;2023-07-30T13:58:56;99654.00;;;29.00
4421;BMP180;11824;51.178;13.546;2023-07-30T14:01:23;99656.00;;;29.10
4421;BMP180;11824;51.178;13.546;2023-07-30T14:03:51;99662.00;;;29.20
4421;BMP180;11824;51.178;13.546;2023-07-30T14:06:18;99664.00;;;29.30
4421;BMP180;11824;51.178;13.546;2023-07-30T14:08:46;99656.00;;;29.30
4421;BMP180;11824;51.178;13.546;2023-07-30T14:11:13;99668.00;;;29.30
4421;BMP180;11824;51.178;13.546;2023-07-30T14:13:41;99665.00;;;29.30